Time;durP1;ratioP1;P1;durP2;ratioP2;P2;SDS_P1;SDS_P2;PMS_P1;PMS_P2;Temp;Humidity;BMP_temperature;BMP_pressure;BME280_temperature;BME280_humidity;BME280_pressure;Samples;Min_cycle;Max_cycle;Signal;HPM_P1;HPM_P2
2022/12/27 00:00:34;;;;;;;7.23;2.00;;;;;;;;;;5029592;28;20200;-60
2022/12/27 00:03:02;;;;;;;4.17;1.63;;;;;;;;;;5028052;28;20219;-62
2022/12/27 00:05:29;;;;;;;5.57;1.80;;;;;;;;;;5030583;28;20215;-60
2022/12/27 00:07:57;;;;;;;6.80;1.87;;;;;;;;;;5028182;28;20272;-61
2022/12/27 00:10:25;;;;;;;3.60;1.80;;;;;;;;;;5030991;28;20231;-61
2022/12/27 00:12:52;;;;;;;5.00;1.60;;;;;;;;;;5024456;28;20223;-62
2022/12/27 00:15:20;;;;;;;1.97;1.40;;;;;;;;;;5031788;28;20196;-61
2022/12/27 00:17:47;;;;;;;5.47;2.03;;;;;;;;;;5032905;28;20285;-61
2022/12/27 00:20:14;;;;;;;3.00;1.80;;;;;;;;;;5030048;28;20227;-62
2022/12/27 00:22:41;;;;;;;6.60;2.00;;;;;;;;;;5031819;28;20204;-60
2022/12/27 00:25:10;;;;;;;3.53;2.43;;;;;;;;;;5031646;28;20204;-61
2022/12/27 00:27:38;;;;;;;4.60;2.40;;;;;;;;;;5032006;28;20286;-60
2022/12/27 00:30:05;;;;;;;5.63;2.90;;;;;;;;;;5029304;28;20204;-61
2022/12/27 00:32:32;;;;;;;6.73;2.37;;;;;;;;;;5031121;28;20231;-62
2022/12/27 00:34:59;;;;;;;4.57;1.87;;;;;;;;;;5031829;28;20295;-62
2022/12/27 00:37:27;;;;;;;5.20;2.30;;;;;;;;;;5032741;28;20200;-60
2022/12/27 00:39:54;;;;;;;5.73;2.13;;;;;;;;;;5030157;28;20208;-62
2022/12/27 00:42:22;;;;;;;5.60;2.20;;;;;;;;;;5030817;28;20197;-61
2022/12/27 00:44:49;;;;;;;6.00;2.10;;;;;;;;;;5031843;28;20198;-61
2022/12/27 00:47:17;;;;;;;5.53;1.90;;;;;;;;;;5031879;28;20214;-62
2022/12/27 00:49:44;;;;;;;8.97;2.47;;;;;;;;;;5031423;28;20288;-62
2022/12/27 00:52:11;;;;;;;6.57;2.20;;;;;;;;;;5025055;28;20235;-62
2022/12/27 00:54:38;;;;;;;7.57;2.27;;;;;;;;;;5030252;28;20283;-61
2022/12/27 00:57:05;;;;;;;3.90;2.03;;;;;;;;;;5029806;28;20286;-62
2022/12/27 00:59:34;;;;;;;4.93;2.13;;;;;;;;;;5028892;28;20204;-62
2022/12/27 01:02:01;;;;;;;6.87;2.10;;;;;;;;;;5031651;28;20254;-62
2022/12/27 01:04:28;;;;;;;5.80;2.17;;;;;;;;;;5029404;28;20213;-61
2022/12/27 01:06:56;;;;;;;4.73;2.23;;;;;;;;;;5031241;28;20196;-62
2022/12/27 01:09:23;;;;;;;6.40;2.03;;;;;;;;;;5028658;28;20214;-58
2022/12/27 01:11:50;;;;;;;4.43;2.20;;;;;;;;;;5029716;28;20300;-62
2022/12/27 01:14:17;;;;;;;8.80;2.40;;;;;;;;;;5028896;28;20291;-61
2022/12/27 01:16:46;;;;;;;4.60;2.17;;;;;;;;;;5030691;28;20240;-61
2022/12/27 01:19:13;;;;;;;10.50;2.30;;;;;;;;;;5027792;28;20283;-62
2022/12/27 01:21:40;;;;;;;5.57;2.10;;;;;;;;;;5027281;28;20266;-61
2022/12/27 01:24:08;;;;;;;5.43;2.23;;;;;;;;;;5029214;28;20214;-62
2022/12/27 01:26:35;;;;;;;8.50;2.57;;;;;;;;;;5030231;28;20208;-60
2022/12/27 01:29:02;;;;;;;5.77;2.43;;;;;;;;;;5026384;28;20211;-61
2022/12/27 01:31:29;;;;;;;6.83;2.07;;;;;;;;;;5029507;28;20200;-61
2022/12/27 01:33:58;;;;;;;6.47;2.37;;;;;;;;;;5028239;28;20262;-62
2022/12/27 01:36:26;;;;;;;4.00;2.57;;;;;;;;;;5026846;28;20214;-62
2022/12/27 01:38:54;;;;;;;6.10;2.40;;;;;;;;;;5024701;28;20310;-62
2022/12/27 01:44:26;;;;;;;6.03;2.20;;;;;;;;;;5026424;28;20300;-61
2022/12/27 01:46:53;;;;;;;6.10;2.60;;;;;;;;;;5026584;28;20207;-62
2022/12/27 01:49:23;;;;;;;8.80;2.40;;;;;;;;;;5026886;28;20208;-62
2022/12/27 01:51:50;;;;;;;3.97;2.20;;;;;;;;;;5025323;28;20220;-62
2022/12/27 01:54:17;;;;;;;5.77;1.97;;;;;;;;;;5030432;28;20212;-61
2022/12/27 01:56:45;;;;;;;8.87;2.47;;;;;;;;;;5028387;28;20207;-62
2022/12/27 01:59:13;;;;;;;5.23;2.03;;;;;;;;;;5030198;28;20196;-61
2022/12/27 02:01:41;;;;;;;4.87;2.80;;;;;;;;;;5029064;28;20236;-62
2022/12/27 02:04:09;;;;;;;4.60;1.90;;;;;;;;;;5027639;28;20204;-59
2022/12/27 02:06:39;;;;;;;5.13;2.20;;;;;;;;;;5023594;28;20629;-62
2022/12/27 02:09:09;;;;;;;5.67;1.90;;;;;;;;;;5025113;28;20204;-62
2022/12/27 02:11:54;;;;;;;6.63;2.43;;;;;;;;;;5024535;28;20259;-62
2022/12/27 02:14:22;;;;;;;7.10;2.40;;;;;;;;;;5026797;28;20251;-62
2022/12/27 02:16:50;;;;;;;5.97;2.27;;;;;;;;;;5027036;28;20204;-61
2022/12/27 02:19:25;;;;;;;3.40;2.23;;;;;;;;;;5030447;28;20207;-61
2022/12/27 02:22:16;;;;;;;6.30;2.40;;;;;;;;;;5028012;28;20203;-61
2022/12/27 02:24:58;;;;;;;6.93;2.63;;;;;;;;;;5023035;28;20295;-61
2022/12/27 02:27:35;;;;;;;6.67;2.47;;;;;;;;;;5029422;28;20199;-61
2022/12/27 02:30:06;;;;;;;4.73;2.47;;;;;;;;;;5026385;28;20198;-61
2022/12/27 02:32:36;;;;;;;6.17;2.40;;;;;;;;;;5031481;28;20208;-62
2022/12/27 02:35:09;;;;;;;8.70;2.50;;;;;;;;;;5030755;28;20200;-61
2022/12/27 02:37:39;;;;;;;5.50;2.50;;;;;;;;;;5032603;28;20204;-61
2022/12/27 02:54:08;;;;;;;7.13;2.40;;;;;;;;;;5028168;28;20207;-60
2022/12/27 02:59:29;;;;;;;10.90;2.60;;;;;;;;;;5018686;28;20305;-62
2022/12/27 03:04:55;;;;;;;8.67;2.60;;;;;;;;;;5000392;28;20212;-61
2022/12/27 03:07:30;;;;;;;7.10;2.57;;;;;;;;;;5031583;28;20211;-58
2022/12/27 03:15:57;;;;;;;4.20;2.20;;;;;;;;;;5030331;28;20199;-62
2022/12/27 03:18:43;;;;;;;4.83;2.20;;;;;;;;;;5030733;28;20223;-61
2022/12/27 03:26:43;;;;;;;9.57;2.57;;;;;;;;;;5029473;28;20203;-62
2022/12/27 03:34:48;;;;;;;8.93;3.30;;;;;;;;;;5027294;28;20203;-61
2022/12/27 03:40:05;;;;;;;10.73;3.57;;;;;;;;;;5029854;28;20203;-62
2022/12/27 03:45:20;;;;;;;11.27;2.80;;;;;;;;;;5029427;28;20204;-62
2022/12/27 03:47:48;;;;;;;6.10;3.03;;;;;;;;;;5032985;28;20204;-61
2022/12/27 03:50:20;;;;;;;5.67;3.27;;;;;;;;;;5028933;28;20188;-62
2022/12/27 03:52:49;;;;;;;6.87;3.20;;;;;;;;;;5030672;28;20219;-61
2022/12/27 03:55:17;;;;;;;8.17;3.20;;;;;;;;;;5031222;28;20199;-61
2022/12/27 03:57:44;;;;;;;5.33;2.60;;;;;;;;;;5029064;28;20201;-62
2022/12/27 04:00:12;;;;;;;6.93;2.93;;;;;;;;;;5029448;28;20203;-61
2022/12/27 04:02:39;;;;;;;7.60;3.07;;;;;;;;;;5029624;28;20192;-62
2022/12/27 04:05:07;;;;;;;8.67;3.30;;;;;;;;;;5032831;28;20433;-60
2022/12/27 04:07:37;;;;;;;8.77;3.40;;;;;;;;;;5029620;28;20292;-62
2022/12/27 04:34:48;;;;;;;7.40;3.13;;;;;;;;;;5029843;28;20217;-61
2022/12/27 04:37:16;;;;;;;6.60;2.97;;;;;;;;;;5031299;28;20207;-61
2022/12/27 04:54:55;;;;;;;6.43;3.20;;;;;;;;;;5030977;28;20212;-62
2022/12/27 04:56:21;;;;;;;6.50;2.67;;;;;;;;;;5029028;28;20195;-62
2022/12/27 05:04:14;;;;;;;4.67;2.63;;;;;;;;;;5029100;28;20204;-62
2022/12/27 05:06:41;;;;;;;6.47;2.77;;;;;;;;;;5027180;28;20208;-62
2022/12/27 05:14:39;;;;;;;8.03;3.10;;;;;;;;;;5028477;28;20203;-62
2022/12/27 05:17:06;;;;;;;8.93;2.80;;;;;;;;;;5025782;28;20192;-62
2022/12/27 05:19:33;;;;;;;7.80;2.80;;;;;;;;;;5026596;28;20208;-61
2022/12/27 05:27:31;;;;;;;7.50;3.10;;;;;;;;;;5027492;28;20230;-62
2022/12/27 05:29:58;;;;;;;6.57;3.10;;;;;;;;;;5027907;28;20222;-62
2022/12/27 05:32:25;;;;;;;4.40;3.00;;;;;;;;;;5027929;28;20294;-61
2022/12/27 05:34:52;;;;;;;6.40;3.10;;;;;;;;;;5028417;28;20196;-61
2022/12/27 05:37:19;;;;;;;7.13;2.83;;;;;;;;;;5026501;28;20264;-62
2022/12/27 05:39:47;;;;;;;8.33;3.03;;;;;;;;;;5029944;28;20205;-59
2022/12/27 05:42:14;;;;;;;6.60;2.90;;;;;;;;;;5030574;28;20258;-62
2022/12/27 05:44:42;;;;;;;6.17;2.97;;;;;;;;;;5033770;28;20200;-62
2022/12/27 05:47:09;;;;;;;4.47;2.77;;;;;;;;;;5029771;28;20200;-62
2022/12/27 05:49:37;;;;;;;6.80;3.10;;;;;;;;;;5025775;28;20200;-61
2022/12/27 05:52:04;;;;;;;6.73;3.10;;;;;;;;;;5027536;28;20208;-61
2022/12/27 05:54:31;;;;;;;7.30;3.23;;;;;;;;;;5024775;28;20222;-61
2022/12/27 05:56:58;;;;;;;7.50;3.03;;;;;;;;;;5028228;28;20223;-59
2022/12/27 05:59:25;;;;;;;8.70;3.00;;;;;;;;;;5025786;28;20204;-60
2022/12/27 06:01:54;;;;;;;10.03;2.90;;;;;;;;;;5023422;28;20200;-61
2022/12/27 06:04:21;;;;;;;6.00;3.50;;;;;;;;;;5029433;28;20209;-62
2022/12/27 06:06:48;;;;;;;7.47;3.90;;;;;;;;;;5024506;28;20204;-62
2022/12/27 06:09:18;;;;;;;6.30;3.40;;;;;;;;;;5025625;28;20196;-62
2022/12/27 06:11:45;;;;;;;8.70;4.00;;;;;;;;;;5024239;28;20240;-62
2022/12/27 06:14:12;;;;;;;9.27;3.80;;;;;;;;;;5027496;28;20330;-61
2022/12/27 06:16:39;;;;;;;10.77;4.03;;;;;;;;;;5025389;28;20204;-61
2022/12/27 06:19:08;;;;;;;6.10;3.93;;;;;;;;;;5024659;28;20204;-61
2022/12/27 06:21:35;;;;;;;8.80;4.23;;;;;;;;;;5026357;28;20196;-62
2022/12/27 06:24:02;;;;;;;11.13;4.70;;;;;;;;;;5026000;28;20291;-62
2022/12/27 06:26:30;;;;;;;9.60;4.43;;;;;;;;;;5026484;28;20206;-61
2022/12/27 06:28:58;;;;;;;8.63;4.33;;;;;;;;;;5027992;28;20196;-61
2022/12/27 06:31:26;;;;;;;8.67;4.00;;;;;;;;;;5022175;28;20200;-62
2022/12/27 06:33:53;;;;;;;9.07;4.20;;;;;;;;;;5026784;28;20220;-61
2022/12/27 06:36:23;;;;;;;9.83;4.80;;;;;;;;;;5025154;28;20212;-62
2022/12/27 06:38:50;;;;;;;8.00;4.27;;;;;;;;;;5028769;28;20250;-62
2022/12/27 06:41:18;;;;;;;8.63;4.27;;;;;;;;;;5026271;28;20210;-62
2022/12/27 06:43:45;;;;;;;9.60;4.30;;;;;;;;;;5025197;28;20204;-61
2022/12/27 06:46:14;;;;;;;11.80;4.90;;;;;;;;;;5027226;28;20200;-62
2022/12/27 06:48:41;;;;;;;13.47;4.40;;;;;;;;;;5027150;28;20228;-62
2022/12/27 06:51:09;;;;;;;9.07;4.10;;;;;;;;;;5024918;28;20204;-62
2022/12/27 06:53:38;;;;;;;8.10;4.40;;;;;;;;;;5028562;28;20212;-62
2022/12/27 06:56:06;;;;;;;9.13;4.77;;;;;;;;;;5027046;28;20207;-61
2022/12/27 06:58:33;;;;;;;7.60;4.60;;;;;;;;;;5027683;28;20286;-61
2022/12/27 07:01:07;;;;;;;10.67;5.03;;;;;;;;;;5025372;28;20204;-61
2022/12/27 07:03:34;;;;;;;7.53;4.60;;;;;;;;;;5026046;28;20223;-62
2022/12/27 07:06:02;;;;;;;10.30;5.00;;;;;;;;;;5024802;28;20220;-62
2022/12/27 07:08:29;;;;;;;9.43;4.80;;;;;;;;;;5027091;28;20212;-62
2022/12/27 07:11:01;;;;;;;11.07;4.90;;;;;;;;;;5024872;28;20344;-61
2022/12/27 07:13:28;;;;;;;13.67;5.33;;;;;;;;;;5021279;28;20212;-62
2022/12/27 07:15:55;;;;;;;8.43;4.97;;;;;;;;;;5026514;28;20200;-61
2022/12/27 07:18:23;;;;;;;10.13;4.87;;;;;;;;;;5023264;28;20211;-62
2022/12/27 07:20:50;;;;;;;7.93;4.53;;;;;;;;;;5026990;28;20202;-62
2022/12/27 07:23:17;;;;;;;9.90;5.20;;;;;;;;;;5030304;28;20200;-62
2022/12/27 07:25:44;;;;;;;10.50;4.87;;;;;;;;;;5027819;28;20200;-61
2022/12/27 07:28:13;;;;;;;12.43;5.03;;;;;;;;;;5031002;28;20203;-61
2022/12/27 07:30:40;;;;;;;9.03;4.97;;;;;;;;;;5030676;28;20235;-61
2022/12/27 07:33:07;;;;;;;10.67;4.93;;;;;;;;;;5029076;28;20200;-61
2022/12/27 07:35:35;;;;;;;10.77;5.27;;;;;;;;;;5027559;28;20237;-60
2022/12/27 07:38:02;;;;;;;8.07;5.17;;;;;;;;;;5031116;28;20211;-61
2022/12/27 07:40:29;;;;;;;10.00;5.57;;;;;;;;;;5029948;28;20208;-61
2022/12/27 07:42:56;;;;;;;11.47;5.13;;;;;;;;;;5027966;28;20285;-62
2022/12/27 07:45:25;;;;;;;8.67;5.10;;;;;;;;;;5028369;28;20211;-61
2022/12/27 07:47:52;;;;;;;11.57;5.10;;;;;;;;;;5027485;28;20203;-61
2022/12/27 07:50:19;;;;;;;7.30;4.20;;;;;;;;;;5029113;28;20219;-62
2022/12/27 07:52:47;;;;;;;10.30;4.87;;;;;;;;;;5028542;28;20223;-62
2022/12/27 07:55:15;;;;;;;10.13;4.83;;;;;;;;;;5028892;28;20216;-62
2022/12/27 07:57:42;;;;;;;8.20;4.60;;;;;;;;;;5029143;28;20204;-62
2022/12/27 08:00:10;;;;;;;8.77;4.50;;;;;;;;;;5025683;28;20207;-61
2022/12/27 08:02:38;;;;;;;9.73;4.67;;;;;;;;;;5036313;28;20200;-62
2022/12/27 08:05:06;;;;;;;11.87;5.27;;;;;;;;;;5026607;28;20200;-62
2022/12/27 08:07:36;;;;;;;7.27;4.47;;;;;;;;;;5027563;28;20201;-62
2022/12/27 08:10:05;;;;;;;9.87;5.17;;;;;;;;;;5028038;28;20220;-61
2022/12/27 08:12:32;;;;;;;11.20;5.47;;;;;;;;;;5028443;28;20196;-61
2022/12/27 08:14:59;;;;;;;11.60;5.10;;;;;;;;;;5028274;28;20517;-62
2022/12/27 08:17:27;;;;;;;10.77;4.93;;;;;;;;;;5026505;28;20215;-62
2022/12/27 08:19:56;;;;;;;9.97;5.63;;;;;;;;;;5030182;28;20211;-62
2022/12/27 08:22:23;;;;;;;8.73;5.00;;;;;;;;;;5027015;28;20203;-61
2022/12/27 08:24:50;;;;;;;9.13;5.87;;;;;;;;;;5028848;28;20200;-61
2022/12/27 08:27:21;;;;;;;10.67;4.87;;;;;;;;;;5026789;28;20228;-62
2022/12/27 08:29:48;;;;;;;12.10;5.27;;;;;;;;;;5028442;28;20204;-62
2022/12/27 08:32:15;;;;;;;9.83;5.23;;;;;;;;;;5027614;28;20202;-62
2022/12/27 08:34:44;;;;;;;9.63;5.27;;;;;;;;;;5025753;28;20211;-62
2022/12/27 08:37:12;;;;;;;15.23;5.30;;;;;;;;;;5029258;28;20208;-61
2022/12/27 08:39:39;;;;;;;9.23;5.10;;;;;;;;;;5030017;28;20200;-61
2022/12/27 08:42:07;;;;;;;11.00;5.43;;;;;;;;;;5031595;28;20210;-61
2022/12/27 08:44:34;;;;;;;10.83;5.17;;;;;;;;;;5029937;28;20196;-61
2022/12/27 08:47:03;;;;;;;9.83;4.57;;;;;;;;;;5032607;28;20200;-61
2022/12/27 08:49:30;;;;;;;11.33;5.03;;;;;;;;;;5027694;28;20234;-62
2022/12/27 08:51:57;;;;;;;8.07;4.70;;;;;;;;;;5029775;28;20224;-61
2022/12/27 08:54:26;;;;;;;11.23;5.33;;;;;;;;;;5029813;28;20232;-61
2022/12/27 08:56:53;;;;;;;10.63;5.20;;;;;;;;;;5023649;28;20196;-62
2022/12/27 08:59:20;;;;;;;10.73;4.80;;;;;;;;;;5023932;28;20216;-61
2022/12/27 09:01:47;;;;;;;11.30;5.20;;;;;;;;;;5025686;28;20192;-62
2022/12/27 09:04:14;;;;;;;12.60;4.97;;;;;;;;;;5027154;28;20197;-61
2022/12/27 09:06:41;;;;;;;13.87;4.83;;;;;;;;;;5027287;28;20201;-62
2022/12/27 09:09:09;;;;;;;8.27;4.70;;;;;;;;;;5027981;28;20196;-62
2022/12/27 09:11:37;;;;;;;9.97;4.60;;;;;;;;;;5027751;28;20228;-60
2022/12/27 09:14:05;;;;;;;8.40;4.47;;;;;;;;;;5026448;28;20231;-62
2022/12/27 09:16:34;;;;;;;10.27;4.70;;;;;;;;;;5024456;28;20226;-61
2022/12/27 09:19:02;;;;;;;12.70;4.70;;;;;;;;;;5030085;28;20212;-62
2022/12/27 09:21:30;;;;;;;9.07;4.43;;;;;;;;;;5024090;28;20212;-62
2022/12/27 09:23:57;;;;;;;14.33;5.30;;;;;;;;;;5026519;28;20204;-61
2022/12/27 09:26:29;;;;;;;10.37;4.30;;;;;;;;;;5025327;28;20208;-61
2022/12/27 09:28:58;;;;;;;9.90;5.00;;;;;;;;;;5027984;28;20201;-61
2022/12/27 09:31:25;;;;;;;12.00;4.57;;;;;;;;;;5026591;28;20260;-62
2022/12/27 09:33:52;;;;;;;10.53;4.70;;;;;;;;;;5024030;28;20231;-61
2022/12/27 09:36:20;;;;;;;11.37;4.87;;;;;;;;;;5027332;28;20215;-61
2022/12/27 09:38:48;;;;;;;10.03;4.67;;;;;;;;;;5028361;28;20208;-61
2022/12/27 09:41:18;;;;;;;9.27;4.57;;;;;;;;;;5016643;28;20197;-62
2022/12/27 09:43:51;;;;;;;11.03;5.20;;;;;;;;;;5020032;28;20230;-60
2022/12/27 09:46:22;;;;;;;13.17;4.77;;;;;;;;;;5022063;28;20204;-62
2022/12/27 09:48:51;;;;;;;12.57;4.93;;;;;;;;;;5022003;28;20228;-62
2022/12/27 09:51:20;;;;;;;9.43;4.50;;;;;;;;;;5027523;28;20261;-62
2022/12/27 09:53:51;;;;;;;14.13;5.07;;;;;;;;;;5029216;28;20228;-61
2022/12/27 09:56:22;;;;;;;8.97;4.30;;;;;;;;;;5030117;28;20207;-61
2022/12/27 09:58:51;;;;;;;9.63;4.50;;;;;;;;;;5028361;28;20208;-62
2022/12/27 10:01:22;;;;;;;9.23;4.20;;;;;;;;;;5024486;28;20208;-61
2022/12/27 10:03:49;;;;;;;8.63;4.67;;;;;;;;;;5023901;28;20196;-61
2022/12/27 10:06:23;;;;;;;7.40;4.10;;;;;;;;;;5023212;28;20196;-62
2022/12/27 10:08:56;;;;;;;14.97;4.43;;;;;;;;;;5027550;28;20235;-62
2022/12/27 10:11:37;;;;;;;9.60;4.43;;;;;;;;;;5026144;28;20250;-62
2022/12/27 10:14:09;;;;;;;8.50;4.20;;;;;;;;;;5026460;28;20342;-61
2022/12/27 10:16:42;;;;;;;11.47;4.23;;;;;;;;;;5019763;28;20200;-61
2022/12/27 10:19:19;;;;;;;11.13;4.10;;;;;;;;;;5026387;28;20203;-60
2022/12/27 10:21:54;;;;;;;8.07;3.43;;;;;;;;;;5028384;28;20212;-61
2022/12/27 10:24:24;;;;;;;9.87;4.20;;;;;;;;;;5023471;28;20225;-61
2022/12/27 10:26:52;;;;;;;9.13;4.20;;;;;;;;;;5022421;28;20212;-62
2022/12/27 10:29:21;;;;;;;11.00;4.50;;;;;;;;;;5026201;28;20216;-62
2022/12/27 10:31:50;;;;;;;9.53;4.33;;;;;;;;;;5023789;28;20204;-62
2022/12/27 10:34:22;;;;;;;9.20;4.83;;;;;;;;;;5029935;28;20223;-60
2022/12/27 10:36:50;;;;;;;8.00;4.37;;;;;;;;;;5025722;28;20196;-61
2022/12/27 10:39:19;;;;;;;10.17;4.50;;;;;;;;;;5026320;28;20196;-62
2022/12/27 10:41:51;;;;;;;7.97;4.23;;;;;;;;;;5025104;28;20188;-62
2022/12/27 10:44:19;;;;;;;8.47;4.13;;;;;;;;;;5027921;28;20197;-58
2022/12/27 10:46:52;;;;;;;8.93;4.20;;;;;;;;;;5019629;28;20215;-58
2022/12/27 10:49:22;;;;;;;11.33;5.00;;;;;;;;;;5023296;28;20206;-58
2022/12/27 10:51:51;;;;;;;7.63;3.60;;;;;;;;;;5023377;28;20260;-60
2022/12/27 10:54:22;;;;;;;10.70;3.70;;;;;;;;;;5025713;28;20241;-59
2022/12/27 10:56:49;;;;;;;9.50;3.90;;;;;;;;;;5026907;28;20483;-57
2022/12/27 10:59:17;;;;;;;7.90;3.73;;;;;;;;;;5027296;28;20205;-59
2022/12/27 11:01:45;;;;;;;8.67;4.07;;;;;;;;;;5021932;28;20211;-59
2022/12/27 11:04:15;;;;;;;6.50;3.70;;;;;;;;;;5026530;28;20209;-59
2022/12/27 11:06:42;;;;;;;6.60;3.37;;;;;;;;;;5021551;28;20208;-59
2022/12/27 11:09:33;;;;;;;8.93;3.70;;;;;;;;;;5031725;28;20201;-60
2022/12/27 11:12:18;;;;;;;7.93;3.97;;;;;;;;;;5002409;28;20232;-59
2022/12/27 11:14:55;;;;;;;7.53;4.10;;;;;;;;;;5022997;28;20226;-59
2022/12/27 11:17:23;;;;;;;8.23;3.80;;;;;;;;;;5024831;28;20210;-58
2022/12/27 11:19:52;;;;;;;7.83;3.60;;;;;;;;;;5027002;28;20205;-59
2022/12/27 11:22:19;;;;;;;10.40;4.30;;;;;;;;;;5023965;28;20304;-58
2022/12/27 11:24:48;;;;;;;6.47;3.47;;;;;;;;;;5027112;28;20204;-60
2022/12/27 11:27:21;;;;;;;9.70;4.10;;;;;;;;;;5027023;28;20211;-58
2022/12/27 11:29:48;;;;;;;10.70;3.70;;;;;;;;;;5031129;28;20212;-58
2022/12/27 11:32:16;;;;;;;9.03;3.47;;;;;;;;;;5029703;28;20291;-57
2022/12/27 11:34:45;;;;;;;5.80;3.37;;;;;;;;;;5021496;28;20244;-59
2022/12/27 11:37:15;;;;;;;5.10;3.07;;;;;;;;;;5027514;28;20260;-58
2022/12/27 11:39:43;;;;;;;9.03;4.10;;;;;;;;;;5029363;28;20224;-58
2022/12/27 11:42:15;;;;;;;8.73;3.70;;;;;;;;;;5027209;28;20208;-58
2022/12/27 11:44:44;;;;;;;9.20;3.70;;;;;;;;;;5025379;28;20200;-57
2022/12/27 11:47:13;;;;;;;8.87;3.67;;;;;;;;;;5021954;28;20209;-57
2022/12/27 11:49:45;;;;;;;6.10;3.20;;;;;;;;;;5024590;28;20200;-57
2022/12/27 11:52:23;;;;;;;8.63;3.70;;;;;;;;;;5024700;28;20259;-56
2022/12/27 11:54:58;;;;;;;7.67;3.87;;;;;;;;;;5027333;28;20231;-57
2022/12/27 11:57:31;;;;;;;8.60;4.60;;;;;;;;;;5023170;28;20234;-59
2022/12/27 12:00:04;;;;;;;10.50;4.10;;;;;;;;;;5028596;28;20204;-58
2022/12/27 12:02:34;;;;;;;10.83;3.80;;;;;;;;;;5026153;28;20291;-58
2022/12/27 12:05:08;;;;;;;8.20;3.93;;;;;;;;;;5028080;28;20219;-58
2022/12/27 12:07:44;;;;;;;6.97;3.90;;;;;;;;;;5031103;28;20300;-57
2022/12/27 12:10:20;;;;;;;11.03;4.20;;;;;;;;;;5024404;28;20209;-59
2022/12/27 12:13:03;;;;;;;8.37;5.00;;;;;;;;;;5021589;28;20204;-58
2022/12/27 12:15:51;;;;;;;9.47;4.67;;;;;;;;;;5025943;28;20227;-58
2022/12/27 12:18:25;;;;;;;10.97;4.67;;;;;;;;;;4995893;28;20215;-58
2022/12/27 12:21:10;;;;;;;10.23;4.43;;;;;;;;;;5022234;28;21785;-56
2022/12/27 12:23:47;;;;;;;9.90;4.20;;;;;;;;;;5027780;28;20211;-57
2022/12/27 12:26:17;;;;;;;10.17;4.47;;;;;;;;;;5025212;28;20204;-58
2022/12/27 12:28:56;;;;;;;7.93;4.10;;;;;;;;;;5028813;28;20207;-58
2022/12/27 12:31:36;;;;;;;11.20;4.53;;;;;;;;;;5032091;28;20208;-57
2022/12/27 12:34:09;;;;;;;8.93;3.93;;;;;;;;;;5025257;28;20209;-58
2022/12/27 12:36:58;;;;;;;10.43;4.10;;;;;;;;;;5022285;28;20217;-58
2022/12/27 12:39:34;;;;;;;8.83;3.73;;;;;;;;;;5017659;28;20225;-59
2022/12/27 12:42:11;;;;;;;14.77;4.87;;;;;;;;;;5023537;28;20204;-59
2022/12/27 12:44:51;;;;;;;9.70;4.20;;;;;;;;;;5026223;28;20283;-58
2022/12/27 12:47:27;;;;;;;12.57;4.30;;;;;;;;;;5024214;28;20208;-58
2022/12/27 12:50:01;;;;;;;11.33;4.07;;;;;;;;;;5026369;28;20197;-60
2022/12/27 12:52:48;;;;;;;12.83;4.10;;;;;;;;;;5030985;28;20207;-60
2022/12/27 12:55:31;;;;;;;8.43;4.40;;;;;;;;;;5024513;28;20305;-59
2022/12/27 12:58:07;;;;;;;8.40;4.17;;;;;;;;;;5007674;28;20223;-58
2022/12/27 13:00:43;;;;;;;12.77;4.30;;;;;;;;;;4987944;28;20233;-57
2022/12/27 13:03:29;;;;;;;13.30;4.03;;;;;;;;;;4982766;28;20216;-58
2022/12/27 13:06:01;;;;;;;11.63;4.00;;;;;;;;;;4979987;28;20201;-58
2022/12/27 13:08:31;;;;;;;8.70;4.13;;;;;;;;;;4982683;28;20213;-59
2022/12/27 13:11:04;;;;;;;6.43;4.10;;;;;;;;;;4987600;28;20237;-58
2022/12/27 13:13:36;;;;;;;9.67;3.80;;;;;;;;;;4984943;28;20214;-59
2022/12/27 13:16:12;;;;;;;7.73;4.10;;;;;;;;;;4983084;28;20236;-58
2022/12/27 13:18:45;;;;;;;11.37;3.63;;;;;;;;;;4986983;28;20224;-57
2022/12/27 13:21:17;;;;;;;7.27;3.30;;;;;;;;;;4985423;28;20198;-59
2022/12/27 13:23:47;;;;;;;7.67;3.10;;;;;;;;;;4980705;28;20198;-59
2022/12/27 13:26:18;;;;;;;8.40;3.23;;;;;;;;;;4979849;28;20209;-58
2022/12/27 13:28:52;;;;;;;9.70;2.97;;;;;;;;;;4984099;28;20201;-58
2022/12/27 13:31:25;;;;;;;14.60;3.23;;;;;;;;;;4987847;28;20219;-59
2022/12/27 13:33:58;;;;;;;6.30;2.83;;;;;;;;;;4987047;28;20216;-59
2022/12/27 13:36:29;;;;;;;7.90;2.57;;;;;;;;;;4985281;28;20230;-59
2022/12/27 13:39:11;;;;;;;9.80;3.30;;;;;;;;;;4988041;28;20255;-60
2022/12/27 13:41:50;;;;;;;9.17;3.03;;;;;;;;;;4982370;28;20209;-60
2022/12/27 13:44:28;;;;;;;8.73;2.60;;;;;;;;;;4986214;28;20205;-59
2022/12/27 13:47:08;;;;;;;7.53;3.00;;;;;;;;;;4985309;28;20206;-59
2022/12/27 13:49:42;;;;;;;7.40;2.90;;;;;;;;;;4984304;28;20213;-60
2022/12/27 13:52:14;;;;;;;7.07;2.90;;;;;;;;;;4983208;28;20208;-58
2022/12/27 13:54:56;;;;;;;7.80;2.50;;;;;;;;;;4977670;28;20202;-58
2022/12/27 13:57:31;;;;;;;7.10;2.73;;;;;;;;;;4983437;28;20221;-59
2022/12/27 14:00:08;;;;;;;7.23;2.60;;;;;;;;;;4984188;28;20198;-60
2022/12/27 14:03:01;;;;;;;7.20;2.37;;;;;;;;;;4985316;28;20292;-58
2022/12/27 14:05:39;;;;;;;5.83;2.90;;;;;;;;;;4979437;28;20214;-59
2022/12/27 14:08:11;;;;;;;8.33;3.30;;;;;;;;;;4978476;28;20201;-59
2022/12/27 14:10:41;;;;;;;9.47;3.30;;;;;;;;;;4982419;28;20245;-60
2022/12/27 14:13:09;;;;;;;9.53;2.90;;;;;;;;;;4978563;28;20210;-57
2022/12/27 14:15:51;;;;;;;12.70;3.10;;;;;;;;;;4980751;28;20245;-59
2022/12/27 14:18:37;;;;;;;6.40;2.53;;;;;;;;;;4979110;28;20215;-59
2022/12/27 14:21:14;;;;;;;7.67;2.40;;;;;;;;;;4982537;28;20212;-58
2022/12/27 14:23:45;;;;;;;8.50;2.40;;;;;;;;;;4985651;28;20240;-59
2022/12/27 14:26:24;;;;;;;9.70;2.83;;;;;;;;;;4981253;28;20208;-58
2022/12/27 14:29:10;;;;;;;6.30;2.50;;;;;;;;;;4984820;28;20197;-59
2022/12/27 14:31:48;;;;;;;6.67;2.77;;;;;;;;;;4987298;28;20217;-58
2022/12/27 14:34:26;;;;;;;5.43;2.47;;;;;;;;;;4984132;28;20220;-58
2022/12/27 14:37:11;;;;;;;4.37;2.20;;;;;;;;;;4980633;28;20225;-55
2022/12/27 14:39:59;;;;;;;4.43;2.73;;;;;;;;;;4982605;28;20208;-59
2022/12/27 14:42:35;;;;;;;6.07;2.47;;;;;;;;;;4975383;28;20244;-58
2022/12/27 14:45:35;;;;;;;8.27;3.00;;;;;;;;;;4987364;28;20204;-58
2022/12/27 14:48:23;;;;;;;7.30;3.10;;;;;;;;;;4987536;28;20205;-58
2022/12/27 14:51:06;;;;;;;5.60;2.23;;;;;;;;;;4988476;28;20210;-59
2022/12/27 14:53:56;;;;;;;9.47;2.50;;;;;;;;;;4984952;28;20202;-60
2022/12/27 14:56:27;;;;;;;5.90;2.13;;;;;;;;;;4984643;28;20233;-59
2022/12/27 14:59:10;;;;;;;5.47;2.40;;;;;;;;;;4984666;28;20198;-58
2022/12/27 15:01:44;;;;;;;5.70;2.00;;;;;;;;;;4984438;28;20201;-57
2022/12/27 15:04:31;;;;;;;4.47;2.20;;;;;;;;;;4982686;28;20195;-58
2022/12/27 15:07:20;;;;;;;5.57;2.43;;;;;;;;;;4982215;28;20202;-58
2022/12/27 15:09:53;;;;;;;4.90;2.07;;;;;;;;;;4981226;28;20269;-59
2022/12/27 15:12:24;;;;;;;8.03;2.47;;;;;;;;;;4986576;28;20296;-57
2022/12/27 15:14:58;;;;;;;6.90;2.30;;;;;;;;;;4984126;28;20213;-58
2022/12/27 15:17:32;;;;;;;4.70;2.43;;;;;;;;;;4982166;28;20210;-58
2022/12/27 15:20:12;;;;;;;4.57;2.20;;;;;;;;;;4980587;28;20206;-57
2022/12/27 15:22:49;;;;;;;4.83;2.00;;;;;;;;;;4981719;28;20202;-58
2022/12/27 15:25:21;;;;;;;5.03;2.77;;;;;;;;;;4987020;28;20288;-58
2022/12/27 15:27:53;;;;;;;4.10;2.60;;;;;;;;;;4980830;28;20202;-57
2022/12/27 15:30:22;;;;;;;8.20;2.87;;;;;;;;;;4989650;28;21789;-57
2022/12/27 15:32:56;;;;;;;7.63;2.60;;;;;;;;;;4985389;28;20217;-57
2022/12/27 15:35:33;;;;;;;5.90;2.30;;;;;;;;;;4981497;28;20214;-57
2022/12/27 15:38:05;;;;;;;11.10;3.20;;;;;;;;;;4980026;28;20202;-57
2022/12/27 15:40:56;;;;;;;5.77;3.00;;;;;;;;;;4981190;28;20206;-59
2022/12/27 15:43:35;;;;;;;6.27;2.90;;;;;;;;;;4965496;28;20205;-56
2022/12/27 15:46:09;;;;;;;6.27;2.57;;;;;;;;;;4983017;28;20206;-56
2022/12/27 15:48:49;;;;;;;8.07;2.63;;;;;;;;;;4979232;28;20202;-57
2022/12/27 15:51:23;;;;;;;5.43;2.37;;;;;;;;;;4984311;28;20214;-56
2022/12/27 15:54:03;;;;;;;6.10;2.57;;;;;;;;;;4980000;28;20217;-56
2022/12/27 15:56:40;;;;;;;6.40;2.43;;;;;;;;;;4989384;28;20220;-56
2022/12/27 15:59:26;;;;;;;7.00;2.70;;;;;;;;;;4982705;28;20233;-57
2022/12/27 16:02:08;;;;;;;8.37;2.40;;;;;;;;;;4984787;28;20201;-57
2022/12/27 16:04:42;;;;;;;7.03;2.23;;;;;;;;;;4982114;28;20209;-57
2022/12/27 16:07:24;;;;;;;7.90;2.10;;;;;;;;;;4977962;28;20205;-57
2022/12/27 16:09:52;;;;;;;5.33;2.30;;;;;;;;;;4982312;28;20211;-58
2022/12/27 16:12:32;;;;;;;6.00;2.17;;;;;;;;;;4981509;28;20234;-57
2022/12/27 16:15:14;;;;;;;6.77;2.23;;;;;;;;;;4981364;28;20260;-58
2022/12/27 16:17:49;;;;;;;6.83;2.20;;;;;;;;;;4977143;28;20232;-57
2022/12/27 16:20:17;;;;;;;5.63;2.20;;;;;;;;;;4986075;28;20204;-57
2022/12/27 16:22:50;;;;;;;6.27;2.67;;;;;;;;;;4979884;28;20215;-57
2022/12/27 16:25:24;;;;;;;6.77;2.30;;;;;;;;;;4979603;28;20210;-58
2022/12/27 16:27:55;;;;;;;6.00;2.60;;;;;;;;;;4982320;28;20237;-57
2022/12/27 16:30:36;;;;;;;4.00;2.07;;;;;;;;;;4983795;28;20253;-59
2022/12/27 16:33:03;;;;;;;4.97;2.10;;;;;;;;;;4984251;28;20213;-58
2022/12/27 16:35:30;;;;;;;4.43;2.50;;;;;;;;;;4978822;28;20209;-58
2022/12/27 16:38:02;;;;;;;8.10;3.13;;;;;;;;;;4983951;28;20230;-57
2022/12/27 16:40:42;;;;;;;6.17;2.93;;;;;;;;;;4980856;28;20279;-58
2022/12/27 16:43:24;;;;;;;6.20;2.90;;;;;;;;;;4984684;28;20200;-59
2022/12/27 16:45:57;;;;;;;5.30;1.90;;;;;;;;;;4982788;28;20205;-57